sensor_id;sensor_type;location;lat;lon;timestamp;pressure;altitude;pressure_sealevel;temperature;humidity
27712;BME280;2377;51.734;8.950;2023-05-08T00:01:29;98413.13;;;11.51;77.53
27712;BME280;2377;51.734;8.950;2023-05-08T00:03:57;98415.44;;;11.52;77.77
27712;BME280;2377;51.734;8.950;2023-05-08T00:06:25;98412.88;;;11.52;77.68
27712;BME280;2377;51.734;8.950;2023-05-08T00:08:53;98412.34;;;11.50;77.80
27712;BME280;2377;51.734;8.950;2023-05-08T00:11:20;98413.31;;;11.49;77.67
27712;BME280;2377;51.734;8.950;2023-05-08T00:13:47;98412.72;;;11.47;77.95
27712;BME280;2377;51.734;8.950;2023-05-08T00:16:14;98417.47;;;11.50;77.79
27712;BME280;2377;51.734;8.950;2023-05-08T00:18:42;98412.72;;;11.47;77.89
27712;BME280;2377;51.734;8.950;2023-05-08T00:21:10;98414.50;;;11.47;77.86
27712;BME280;2377;51.734;8.950;2023-05-08T00:23:37;98407.59;;;11.47;77.95
27712;BME280;2377;51.734;8.950;2023-05-08T00:26:04;98400.91;;;11.53;77.75
27712;BME280;2377;51.734;8.950;2023-05-08T00:28:31;98413.72;;;11.46;78.15
27712;BME280;2377;51.734;8.950;2023-05-08T00:30:59;98418.25;;;11.44;77.84
27712;BME280;2377;51.734;8.950;2023-05-08T00:33:27;98411.78;;;11.35;78.57
27712;BME280;2377;51.734;8.950;2023-05-08T00:35:58;98411.00;;;11.34;78.53
27712;BME280;2377;51.734;8.950;2023-05-08T00:38:29;98409.22;;;11.35;78.46
27712;BME280;2377;51.734;8.950;2023-05-08T00:40:57;98403.75;;;11.31;78.36
27712;BME280;2377;51.734;8.950;2023-05-08T00:43:24;98405.47;;;11.31;78.42
27712;BME280;2377;51.734;8.950;2023-05-08T00:45:54;98409.25;;;11.28;78.87
27712;BME280;2377;51.734;8.950;2023-05-08T00:48:22;98412.56;;;11.29;78.87
27712;BME280;2377;51.734;8.950;2023-05-08T00:50:51;98407.47;;;11.29;78.61
27712;BME280;2377;51.734;8.950;2023-05-08T00:53:22;98407.88;;;11.26;78.66
27712;BME280;2377;51.734;8.950;2023-05-08T00:55:51;98403.75;;;11.25;79.06
27712;BME280;2377;51.734;8.950;2023-05-08T00:58:19;98404.72;;;11.24;79.07
27712;BME280;2377;51.734;8.950;2023-05-08T01:00:49;98397.03;;;11.24;79.18
27712;BME280;2377;51.734;8.950;2023-05-08T01:03:20;98399.59;;;11.24;79.15
27712;BME280;2377;51.734;8.950;2023-05-08T01:05:48;98401.19;;;11.18;79.52
27712;BME280;2377;51.734;8.950;2023-05-08T01:08:15;98405.94;;;11.14;79.42
27712;BME280;2377;51.734;8.950;2023-05-08T01:10:57;98404.19;;;11.15;79.63
27712;BME280;2377;51.734;8.950;2023-05-08T01:13:44;98411.25;;;11.13;79.45
27712;BME280;2377;51.734;8.950;2023-05-08T01:16:26;98411.09;;;11.08;79.77
27712;BME280;2377;51.734;8.950;2023-05-08T01:19:03;98406.75;;;11.08;79.92
27712;BME280;2377;51.734;8.950;2023-05-08T01:21:41;98406.16;;;11.06;80.12
27712;BME280;2377;51.734;8.950;2023-05-08T01:27:29;98410.50;;;11.06;80.19
27712;BME280;2377;51.734;8.950;2023-05-08T01:30:52;98417.56;;;11.04;80.51
27712;BME280;2377;51.734;8.950;2023-05-08T01:33:32;98405.38;;;10.99;80.35
27712;BME280;2377;51.734;8.950;2023-05-08T01:36:17;98407.34;;;10.97;80.65
27712;BME280;2377;51.734;8.950;2023-05-08T01:38:54;98403.22;;;10.96;80.77
27712;BME280;2377;51.734;8.950;2023-05-08T01:41:26;98402.66;;;10.94;80.65
27712;BME280;2377;51.734;8.950;2023-05-08T01:44:08;98397.72;;;10.92;80.85
27712;BME280;2377;51.734;8.950;2023-05-08T01:46:36;98397.13;;;10.90;80.75
27712;BME280;2377;51.734;8.950;2023-05-08T01:49:08;98404.03;;;10.90;81.08
27712;BME280;2377;51.734;8.950;2023-05-08T01:51:41;98409.13;;;10.90;80.78
27712;BME280;2377;51.734;8.950;2023-05-08T01:54:15;98410.09;;;10.89;81.17
27712;BME280;2377;51.734;8.950;2023-05-08T01:56:44;98408.13;;;10.91;80.83
27712;BME280;2377;51.734;8.950;2023-05-08T01:59:17;98409.13;;;10.90;80.88
27712;BME280;2377;51.734;8.950;2023-05-08T02:01:51;98411.69;;;10.90;80.93
27712;BME280;2377;51.734;8.950;2023-05-08T02:04:21;98416.81;;;10.90;80.73
27712;BME280;2377;51.734;8.950;2023-05-08T02:06:51;98414.84;;;10.92;81.01
27712;BME280;2377;51.734;8.950;2023-05-08T02:09:21;98415.81;;;10.91;80.63
27712;BME280;2377;51.734;8.950;2023-05-08T02:11:51;98406.97;;;10.87;80.90
27712;BME280;2377;51.734;8.950;2023-05-08T02:14:20;98407.34;;;10.84;80.81
27712;BME280;2377;51.734;8.950;2023-05-08T02:16:50;98407.75;;;10.81;80.99
27712;BME280;2377;51.734;8.950;2023-05-08T02:19:22;98411.69;;;10.76;81.34
27712;BME280;2377;51.734;8.950;2023-05-08T02:21:53;98405.81;;;10.76;81.34
27712;BME280;2377;51.734;8.950;2023-05-08T02:24:22;98410.91;;;10.76;81.24
27712;BME280;2377;51.734;8.950;2023-05-08T02:26:52;98413.66;;;10.74;81.50
27712;BME280;2377;51.734;8.950;2023-05-08T02:29:21;98408.53;;;10.74;81.24
27712;BME280;2377;51.734;8.950;2023-05-08T02:31:50;98403.06;;;10.71;81.40
27712;BME280;2377;51.734;8.950;2023-05-08T02:34:22;98403.06;;;10.71;81.16
27712;BME280;2377;51.734;8.950;2023-05-08T02:36:51;98407.38;;;10.70;81.35
27712;BME280;2377;51.734;8.950;2023-05-08T02:39:24;98409.34;;;10.68;81.42
27712;BME280;2377;51.734;8.950;2023-05-08T02:41:52;98404.63;;;10.65;81.11
27712;BME280;2377;51.734;8.950;2023-05-08T02:44:19;98403.06;;;10.64;81.56
27712;BME280;2377;51.734;8.950;2023-05-08T02:46:54;98403.47;;;10.61;81.77
27712;BME280;2377;51.734;8.950;2023-05-08T02:49:31;98406.97;;;10.60;81.88
27712;BME280;2377;51.734;8.950;2023-05-08T02:52:05;98407.97;;;10.59;81.78
27712;BME280;2377;51.734;8.950;2023-05-08T02:54:41;98405.81;;;10.56;81.95
27712;BME280;2377;51.734;8.950;2023-05-08T02:57:17;98403.44;;;10.54;82.12
27712;BME280;2377;51.734;8.950;2023-05-08T02:59:56;98401.31;;;10.51;82.22
27712;BME280;2377;51.734;8.950;2023-05-08T03:02:36;98393.22;;;10.48;82.48
27712;BME280;2377;51.734;8.950;2023-05-08T03:05:12;98394.81;;;10.49;82.39
27712;BME280;2377;51.734;8.950;2023-05-08T03:07:42;98394.81;;;10.49;82.33
27712;BME280;2377;51.734;8.950;2023-05-08T03:10:14;98393.63;;;10.45;82.54
27712;BME280;2377;51.734;8.950;2023-05-08T03:12:46;98402.84;;;10.46;82.49
27712;BME280;2377;51.734;8.950;2023-05-08T03:15:24;98403.44;;;10.48;82.36
27712;BME280;2377;51.734;8.950;2023-05-08T03:17:56;98397.38;;;10.49;82.38
27712;BME280;2377;51.734;8.950;2023-05-08T03:20:30;98396.78;;;10.47;82.41
27712;BME280;2377;51.734;8.950;2023-05-08T03:23:01;98401.06;;;10.46;82.39
27712;BME280;2377;51.734;8.950;2023-05-08T03:25:30;98397.75;;;10.46;82.38
27712;BME280;2377;51.734;8.950;2023-05-08T03:27:59;98400.91;;;10.48;82.52
27712;BME280;2377;51.734;8.950;2023-05-08T03:30:35;98392.03;;;10.44;82.48
27712;BME280;2377;51.734;8.950;2023-05-08T03:33:10;98390.06;;;10.39;82.92
27712;BME280;2377;51.734;8.950;2023-05-08T03:35:41;98398.91;;;10.36;82.73
27712;BME280;2377;51.734;8.950;2023-05-08T03:38:08;98394.22;;;10.40;82.68
27712;BME280;2377;51.734;8.950;2023-05-08T03:40:36;98402.66;;;10.41;82.80
27712;BME280;2377;51.734;8.950;2023-05-08T03:43:06;98390.88;;;10.40;82.49
27712;BME280;2377;51.734;8.950;2023-05-08T03:45:35;98397.75;;;10.39;82.43
27712;BME280;2377;51.734;8.950;2023-05-08T03:48:04;98404.44;;;10.40;82.54
27712;BME280;2377;51.734;8.950;2023-05-08T03:50:36;98396.00;;;10.40;82.61
27712;BME280;2377;51.734;8.950;2023-05-08T03:53:04;98402.47;;;10.35;82.64
27712;BME280;2377;51.734;8.950;2023-05-08T03:55:32;98401.88;;;10.33;82.80
27712;BME280;2377;51.734;8.950;2023-05-08T03:58:06;98401.69;;;10.35;82.71
27712;BME280;2377;51.734;8.950;2023-05-08T04:00:50;98401.88;;;10.33;82.72
27712;BME280;2377;51.734;8.950;2023-05-08T04:03:25;98406.97;;;10.33;82.83
27712;BME280;2377;51.734;8.950;2023-05-08T04:06:05;98401.25;;;10.25;83.45
27712;BME280;2377;51.734;8.950;2023-05-08T04:08:41;98401.44;;;10.23;83.44
27712;BME280;2377;51.734;8.950;2023-05-08T04:11:25;98402.81;;;10.26;83.35
27712;BME280;2377;51.734;8.950;2023-05-08T04:14:02;98398.13;;;10.29;83.10
27712;BME280;2377;51.734;8.950;2023-05-08T04:16:36;98394.00;;;10.28;83.27
27712;BME280;2377;51.734;8.950;2023-05-08T04:19:10;98396.56;;;10.28;83.41
27712;BME280;2377;51.734;8.950;2023-05-08T04:21:43;98400.28;;;10.26;83.43
27712;BME280;2377;51.734;8.950;2023-05-08T04:24:16;98405.16;;;10.27;83.43
27712;BME280;2377;51.734;8.950;2023-05-08T04:26:44;98402.88;;;10.32;83.39
27712;BME280;2377;51.734;8.950;2023-05-08T04:29:12;98389.69;;;10.35;83.52
27712;BME280;2377;51.734;8.950;2023-05-08T04:31:39;98388.50;;;10.31;83.72
27712;BME280;2377;51.734;8.950;2023-05-08T04:34:08;98403.84;;;10.31;83.06
27712;BME280;2377;51.734;8.950;2023-05-08T04:36:35;98407.38;;;10.30;83.16
27712;BME280;2377;51.734;8.950;2023-05-08T04:39:02;98404.81;;;10.30;83.64
27712;BME280;2377;51.734;8.950;2023-05-08T04:41:31;98400.31;;;10.32;84.00
27712;BME280;2377;51.734;8.950;2023-05-08T04:44:01;98400.88;;;10.34;83.59
27712;BME280;2377;51.734;8.950;2023-05-08T04:46:28;98411.50;;;10.38;83.38
27712;BME280;2377;51.734;8.950;2023-05-08T04:48:55;98408.53;;;10.34;83.45
27712;BME280;2377;51.734;8.950;2023-05-08T04:51:22;98406.97;;;10.33;83.67
27712;BME280;2377;51.734;8.950;2023-05-08T04:53:49;98410.13;;;10.35;83.74
27712;BME280;2377;51.734;8.950;2023-05-08T04:56:16;98407.19;;;10.39;83.71
27712;BME280;2377;51.734;8.950;2023-05-08T04:58:45;98414.44;;;10.42;83.61
27712;BME280;2377;51.734;8.950;2023-05-08T05:01:12;98409.56;;;10.47;83.93
27712;BME280;2377;51.734;8.950;2023-05-08T05:03:39;98413.88;;;10.53;83.67
27712;BME280;2377;51.734;8.950;2023-05-08T05:06:07;98414.28;;;10.56;83.71
27712;BME280;2377;51.734;8.950;2023-05-08T05:08:34;98409.34;;;10.62;83.67
27712;BME280;2377;51.734;8.950;2023-05-08T05:11:01;98407.16;;;10.65;83.60
27712;BME280;2377;51.734;8.950;2023-05-08T05:13:28;98414.47;;;10.68;83.33
27712;BME280;2377;51.734;8.950;2023-05-08T05:15:58;98416.03;;;10.69;83.34
27712;BME280;2377;51.734;8.950;2023-05-08T05:18:25;98409.94;;;10.70;83.46
27712;BME280;2377;51.734;8.950;2023-05-08T05:20:52;98411.50;;;10.71;83.28
27712;BME280;2377;51.734;8.950;2023-05-08T05:23:19;98406.59;;;10.76;83.39
27712;BME280;2377;51.734;8.950;2023-05-08T05:25:46;98405.63;;;10.77;83.49
27712;BME280;2377;51.734;8.950;2023-05-08T05:28:13;98408.75;;;10.79;83.14
27712;BME280;2377;51.734;8.950;2023-05-08T05:30:40;98409.53;;;10.73;83.18
27712;BME280;2377;51.734;8.950;2023-05-08T05:33:08;98411.91;;;10.68;83.50
27712;BME280;2377;51.734;8.950;2023-05-08T05:35:35;98418.41;;;10.71;82.98
27712;BME280;2377;51.734;8.950;2023-05-08T05:38:02;98415.06;;;10.70;83.59
27712;BME280;2377;51.734;8.950;2023-05-08T05:40:30;98421.72;;;10.71;83.35
27712;BME280;2377;51.734;8.950;2023-05-08T05:42:56;98421.91;;;10.70;83.53
27712;BME280;2377;51.734;8.950;2023-05-08T05:45:24;98417.63;;;10.70;83.75
27712;BME280;2377;51.734;8.950;2023-05-08T05:47:51;98417.22;;;10.73;83.53
27712;BME280;2377;51.734;8.950;2023-05-08T05:50:29;98422.69;;;10.77;83.62
27712;BME280;2377;51.734;8.950;2023-05-08T05:52:56;98427.44;;;10.80;83.46
27712;BME280;2377;51.734;8.950;2023-05-08T05:55:23;98427.44;;;10.87;83.31
27712;BME280;2377;51.734;8.950;2023-05-08T05:57:50;98422.50;;;10.92;83.03
27712;BME280;2377;51.734;8.950;2023-05-08T06:00:18;98439.59;;;10.98;83.45
27712;BME280;2377;51.734;8.950;2023-05-08T06:02:45;98438.41;;;11.07;83.52
27712;BME280;2377;51.734;8.950;2023-05-08T06:05:13;98439.78;;;11.16;83.12
27712;BME280;2377;51.734;8.950;2023-05-08T06:07:41;98438.56;;;11.26;82.87
27712;BME280;2377;51.734;8.950;2023-05-08T06:10:09;98436.00;;;11.32;82.53
27712;BME280;2377;51.734;8.950;2023-05-08T06:12:36;98436.00;;;11.39;82.79
27712;BME280;2377;51.734;8.950;2023-05-08T06:15:04;98439.50;;;11.51;83.34
27712;BME280;2377;51.734;8.950;2023-05-08T06:17:32;98443.78;;;11.64;83.10
27712;BME280;2377;51.734;8.950;2023-05-08T06:19:59;98445.34;;;11.72;83.05
27712;BME280;2377;51.734;8.950;2023-05-08T06:22:26;98443.38;;;11.74;82.54
27712;BME280;2377;51.734;8.950;2023-05-08T06:24:56;98452.03;;;11.73;82.21
27712;BME280;2377;51.734;8.950;2023-05-08T06:27:23;98443.38;;;11.74;82.51
27712;BME280;2377;51.734;8.950;2023-05-08T06:29:50;98440.75;;;11.80;82.69
27712;BME280;2377;51.734;8.950;2023-05-08T06:32:18;98440.75;;;11.87;82.67
27712;BME280;2377;51.734;8.950;2023-05-08T06:34:45;98435.41;;;11.95;82.69
27712;BME280;2377;51.734;8.950;2023-05-08T06:37:12;98449.13;;;12.08;82.34
27712;BME280;2377;51.734;8.950;2023-05-08T06:39:40;98450.25;;;12.18;82.35
27712;BME280;2377;51.734;8.950;2023-05-08T06:42:08;98450.59;;;12.29;82.30
27712;BME280;2377;51.734;8.950;2023-05-08T06:44:35;98445.38;;;12.42;82.00
27712;BME280;2377;51.734;8.950;2023-05-08T06:47:03;98449.03;;;12.53;82.06
27712;BME280;2377;51.734;8.950;2023-05-08T06:49:30;98455.63;;;12.67;82.40
27712;BME280;2377;51.734;8.950;2023-05-08T06:51:57;98456.31;;;12.81;82.10
27712;BME280;2377;51.734;8.950;2023-05-08T06:54:24;98465.47;;;12.95;81.76
27712;BME280;2377;51.734;8.950;2023-05-08T06:56:52;98459.84;;;13.05;80.91
27712;BME280;2377;51.734;8.950;2023-05-08T06:59:21;98466.84;;;13.16;79.64
27712;BME280;2377;51.734;8.950;2023-05-08T07:01:49;98463.22;;;13.24;78.93
27712;BME280;2377;51.734;8.950;2023-05-08T07:04:16;98460.34;;;13.39;79.09
27712;BME280;2377;51.734;8.950;2023-05-08T07:06:43;98469.28;;;13.55;79.24
27712;BME280;2377;51.734;8.950;2023-05-08T07:09:10;98464.91;;;13.73;79.25
27712;BME280;2377;51.734;8.950;2023-05-08T07:11:37;98470.56;;;13.94;78.92
27712;BME280;2377;51.734;8.950;2023-05-08T07:14:04;98472.66;;;14.15;78.55
27712;BME280;2377;51.734;8.950;2023-05-08T07:16:32;98479.91;;;14.37;77.71
27712;BME280;2377;51.734;8.950;2023-05-08T07:19:00;98484.00;;;14.56;76.66
27712;BME280;2377;51.734;8.950;2023-05-08T07:21:30;98476.09;;;14.70;75.64
27712;BME280;2377;51.734;8.950;2023-05-08T07:23:59;98480.91;;;14.90;76.00
27712;BME280;2377;51.734;8.950;2023-05-08T07:26:26;98475.31;;;15.05;75.26
27712;BME280;2377;51.734;8.950;2023-05-08T07:28:56;98482.34;;;15.21;74.50
27712;BME280;2377;51.734;8.950;2023-05-08T07:31:23;98474.50;;;15.39;74.59
27712;BME280;2377;51.734;8.950;2023-05-08T07:33:52;98476.94;;;15.58;74.12
27712;BME280;2377;51.734;8.950;2023-05-08T07:36:22;98478.25;;;15.72;72.31
27712;BME280;2377;51.734;8.950;2023-05-08T07:38:49;98482.03;;;15.81;71.73
27712;BME280;2377;51.734;8.950;2023-05-08T07:41:17;98475.59;;;15.96;72.37
27712;BME280;2377;51.734;8.950;2023-05-08T07:43:44;98482.03;;;16.10;72.22
27712;BME280;2377;51.734;8.950;2023-05-08T07:46:18;98477.59;;;16.22;71.14
27712;BME280;2377;51.734;8.950;2023-05-08T07:48:56;98472.72;;;16.38;72.15
27712;BME280;2377;51.734;8.950;2023-05-08T07:51:23;98468.81;;;16.52;71.10
27712;BME280;2377;51.734;8.950;2023-05-08T07:53:51;98470.63;;;16.68;70.63
27712;BME280;2377;51.734;8.950;2023-05-08T07:56:19;98474.81;;;16.86;70.32
27712;BME280;2377;51.734;8.950;2023-05-08T07:58:46;98475.16;;;16.95;69.41
27712;BME280;2377;51.734;8.950;2023-05-08T08:01:13;98468.91;;;17.08;70.26
27712;BME280;2377;51.734;8.950;2023-05-08T08:03:49;98474.97;;;17.19;68.67
27712;BME280;2377;51.734;8.950;2023-05-08T08:06:20;98474.84;;;17.30;67.88
27712;BME280;2377;51.734;8.950;2023-05-08T08:08:47;98476.06;;;17.45;68.29
27712;BME280;2377;51.734;8.950;2023-05-08T08:11:18;98471.81;;;17.56;67.10
27712;BME280;2377;51.734;8.950;2023-05-08T08:13:45;98482.34;;;17.71;68.53
27712;BME280;2377;51.734;8.950;2023-05-08T08:16:12;98471.19;;;17.70;66.03
27712;BME280;2377;51.734;8.950;2023-05-08T08:18:46;98471.78;;;17.78;64.93
27712;BME280;2377;51.734;8.950;2023-05-08T08:21:25;98471.63;;;17.84;66.12
27712;BME280;2377;51.734;8.950;2023-05-08T08:23:58;98466.63;;;18.00;67.42
27712;BME280;2377;51.734;8.950;2023-05-08T08:26:34;98473.56;;;18.21;68.28
27712;BME280;2377;51.734;8.950;2023-05-08T08:29:10;98472.91;;;18.36;66.14
27712;BME280;2377;51.734;8.950;2023-05-08T08:31:53;98468.28;;;18.43;66.76
27712;BME280;2377;51.734;8.950;2023-05-08T08:35:35;98460.66;;;18.58;66.10
27712;BME280;2377;51.734;8.950;2023-05-08T08:42:23;98467.31;;;18.82;67.38
27712;BME280;2377;51.734;8.950;2023-05-08T08:45:47;98461.16;;;18.93;65.33
27712;BME280;2377;51.734;8.950;2023-05-08T08:53:03;98450.41;;;19.16;65.66
27712;BME280;2377;51.734;8.950;2023-05-08T08:59:17;98447.44;;;19.45;64.28
27712;BME280;2377;51.734;8.950;2023-05-08T09:02:06;98449.00;;;19.51;64.16
27712;BME280;2377;51.734;8.950;2023-05-08T09:04:42;98449.53;;;19.63;64.65
27712;BME280;2377;51.734;8.950;2023-05-08T09:07:18;98457.13;;;19.75;61.96
27712;BME280;2377;51.734;8.950;2023-05-08T09:10:05;98453.28;;;19.78;63.71
27712;BME280;2377;51.734;8.950;2023-05-08T09:12:33;98448.84;;;19.83;63.79
27712;BME280;2377;51.734;8.950;2023-05-08T09:15:06;98447.56;;;19.86;62.14
27712;BME280;2377;51.734;8.950;2023-05-08T09:17:46;98446.03;;;19.85;62.63
27712;BME280;2377;51.734;8.950;2023-05-08T09:20:30;98448.88;;;19.94;61.96
27712;BME280;2377;51.734;8.950;2023-05-08T09:23:00;98462.66;;;19.99;62.54
27712;BME280;2377;51.734;8.950;2023-05-08T09:25:41;98455.38;;;20.06;61.82
27712;BME280;2377;51.734;8.950;2023-05-08T09:28:16;98451.22;;;20.11;60.63
27712;BME280;2377;51.734;8.950;2023-05-08T09:30:52;98455.91;;;20.09;62.00
27712;BME280;2377;51.734;8.950;2023-05-08T09:33:22;98448.91;;;20.14;61.81
27712;BME280;2377;51.734;8.950;2023-05-08T09:35:50;98460.06;;;20.20;60.94
27712;BME280;2377;51.734;8.950;2023-05-08T09:38:34;98452.28;;;20.25;62.16
27712;BME280;2377;51.734;8.950;2023-05-08T09:41:08;98446.56;;;20.33;62.14
27712;BME280;2377;51.734;8.950;2023-05-08T09:43:41;98451.75;;;20.43;60.79
27712;BME280;2377;51.734;8.950;2023-05-08T09:46:23;98447.09;;;20.45;60.61
27712;BME280;2377;51.734;8.950;2023-05-08T09:48:53;98449.16;;;20.43;60.74
27712;BME280;2377;51.734;8.950;2023-05-08T09:51:22;98453.56;;;20.48;61.02
27712;BME280;2377;51.734;8.950;2023-05-08T09:53:51;98449.94;;;20.54;62.04
27712;BME280;2377;51.734;8.950;2023-05-08T09:56:32;98453.09;;;20.61;61.58
27712;BME280;2377;51.734;8.950;2023-05-08T09:59:02;98453.84;;;20.72;61.73
27712;BME280;2377;51.734;8.950;2023-05-08T10:01:32;98453.06;;;20.82;60.88
27712;BME280;2377;51.734;8.950;2023-05-08T10:04:01;98454.88;;;20.86;59.84
27712;BME280;2377;51.734;8.950;2023-05-08T10:06:29;98455.88;;;20.90;59.60
27712;BME280;2377;51.734;8.950;2023-05-08T10:09:07;98454.84;;;20.97;57.70
27712;BME280;2377;51.734;8.950;2023-05-08T10:11:41;98457.69;;;21.05;56.75
27712;BME280;2377;51.734;8.950;2023-05-08T10:14:26;98452.75;;;20.99;55.77
27712;BME280;2377;51.734;8.950;2023-05-08T10:16:53;98460.00;;;21.07;56.65
27712;BME280;2377;51.734;8.950;2023-05-08T10:19:22;98447.00;;;21.12;55.93
27712;BME280;2377;51.734;8.950;2023-05-08T10:21:54;98455.06;;;21.10;56.95
27712;BME280;2377;51.734;8.950;2023-05-08T10:24:31;98450.09;;;21.19;56.94
27712;BME280;2377;51.734;8.950;2023-05-08T10:27:15;98441.75;;;21.22;56.36
27712;BME280;2377;51.734;8.950;2023-05-08T10:29:51;98445.38;;;21.31;58.83
27712;BME280;2377;51.734;8.950;2023-05-08T10:32:20;98454.97;;;21.41;58.52
27712;BME280;2377;51.734;8.950;2023-05-08T10:34:55;98446.88;;;21.38;57.34
27712;BME280;2377;51.734;8.950;2023-05-08T10:37:28;98446.91;;;21.48;57.57
27712;BME280;2377;51.734;8.950;2023-05-08T10:39:57;98452.06;;;21.53;57.70
27712;BME280;2377;51.734;8.950;2023-05-08T10:42:26;98448.91;;;21.61;57.94
27712;BME280;2377;51.734;8.950;2023-05-08T10:44:55;98452.81;;;21.64;56.68
27712;BME280;2377;51.734;8.950;2023-05-08T10:47:35;98448.88;;;21.66;56.63
27712;BME280;2377;51.734;8.950;2023-05-08T10:50:21;98448.34;;;21.69;57.73
27712;BME280;2377;51.734;8.950;2023-05-08T10:53:02;98443.66;;;21.71;56.24
27712;BME280;2377;51.734;8.950;2023-05-08T10:55:34;98443.88;;;21.75;58.38
27712;BME280;2377;51.734;8.950;2023-05-08T10:58:29;98443.09;;;21.74;55.26
27712;BME280;2377;51.734;8.950;2023-05-08T11:01:13;98438.19;;;21.68;52.86
27712;BME280;2377;51.734;8.950;2023-05-08T11:03:45;98437.94;;;21.69;56.55
27712;BME280;2377;51.734;8.950;2023-05-08T11:06:13;98444.69;;;21.76;55.04
27712;BME280;2377;51.734;8.950;2023-05-08T11:08:47;98436.84;;;21.81;55.97
27712;BME280;2377;51.734;8.950;2023-05-08T11:11:27;98442.50;;;21.88;54.80
27712;BME280;2377;51.734;8.950;2023-05-08T11:14:08;98437.25;;;21.93;54.40
27712;BME280;2377;51.734;8.950;2023-05-08T11:17:06;98441.16;;;21.95;55.16
